Terminal Aerodrome Forecast
Issued by NWS

Home | Current Version | Previous Version | Text Only | Print | Product List | Glossary Off
Versions: 1 2 3 4 5 6 7 8 9 10 11 12 13 14 15 16 17

000
FTUS43 KMPX 202339
TAFRNH
TAF
KRNH 202339Z 2100/2124 22008KT 6SM -SHRA BR BKN007
     FM210200 23007KT 6SM BR OVC008
     FM210600 28009KT P6SM SCT006
     FM210800 23003KT 4SM BR SCT015
      TEMPO 2109/2113 1SM BR BKN008
     FM211500 22007KT P6SM SCT250=

USA.gov is the U.S. government's official web portal to all federal, state and local government web resources and services.